GB-0062 weather

Branscombe Airfield
Branscombe, England, United Kingdom

Public forecast

Using degrees Celsius for public forecast. Weather courtesy of forecast.io.

METAR (pilot weather report)

Closest report is Exeter International Airport, 10.1 nm (18.7 km) WNW. Retrieved 2019/07/20 04:20 UTC (0 seconds ago):

EGTE 200420Z 18008KT 9999 SCT025 17/17 Q1006

TAF (pilot weather forecast)

Forecast is more than 12 hours old.

Closest forecast is Exeter International Airport, 10.1 nm (18.7 km) WNW. Retrieved 2012/04/19 12:15 UTC (7 years ago):

TAF TAF EGTE 191401Z 1912/1924 31016KT 9999 SCT030 SCT035 PROB40 TEMPO 1915/1918 7000 SHRA BKN014